Time;durP1;ratioP1;P1;durP2;ratioP2;P2;SDS_P1;SDS_P2;PMS_P1;PMS_P2;Temp;Humidity;BMP_temperature;BMP_pressure;BME280_temperature;BME280_humidity;BME280_pressure;Samples;Min_cycle;Max_cycle;Signal;HPM_P1;HPM_P2
2023/10/06 00:02:55;;;;;;;7.63;5.67;;;14.10;99.90;;;;;;5036104;28;20507;-75
2023/10/06 00:05:20;;;;;;;6.93;5.93;;;14.10;1.00;;;;;;5049544;28;20615;-78
2023/10/06 00:07:46;;;;;;;9.80;6.30;;;14.20;1.00;;;;;;5035688;28;20175;-74
2023/10/06 00:10:18;;;;;;;8.27;5.77;;;14.20;1.00;;;;;;5053242;28;20171;-74
2023/10/06 00:12:48;;;;;;;9.67;6.83;;;14.20;1.00;;;;;;5053410;28;20409;-75
2023/10/06 00:15:26;;;;;;;12.23;6.93;;;14.30;1.00;;;;;;5052705;28;20419;-74
2023/10/06 00:18:00;;;;;;;8.93;7.63;;;14.30;1.00;;;;;;5052256;28;20400;-75
2023/10/06 00:20:38;;;;;;;10.57;6.10;;;14.30;1.00;;;;;;5052361;28;20401;-74
2023/10/06 00:23:14;;;;;;;13.37;7.57;;;14.30;1.00;;;;;;5053221;28;20416;-78
2023/10/06 00:25:43;;;;;;;13.13;7.97;;;14.30;1.00;;;;;;5052260;28;20421;-73
2023/10/06 00:28:19;;;;;;;9.10;7.30;;;14.30;1.00;;;;;;5053072;28;20405;-73
2023/10/06 00:30:47;;;;;;;8.83;7.77;;;14.30;1.00;;;;;;5052019;28;20444;-74
2023/10/06 00:33:14;;;;;;;11.33;7.83;;;14.30;1.00;;;;;;5052026;28;20829;-74
2023/10/06 00:35:41;;;;;;;12.53;7.17;;;14.30;1.00;;;;;;5051454;28;21156;-78
2023/10/06 00:38:13;;;;;;;12.50;7.70;;;14.30;1.00;;;;;;5052729;28;20853;-76
2023/10/06 00:40:46;;;;;;;11.67;7.70;;;14.30;1.00;;;;;;5052888;28;20794;-74
2023/10/06 00:43:16;;;;;;;10.57;8.00;;;14.40;1.00;;;;;;5052971;28;20408;-73
2023/10/06 00:45:47;;;;;;;14.47;7.57;;;14.40;1.00;;;;;;5050644;28;20491;-78
2023/10/06 00:48:15;;;;;;;13.23;6.97;;;14.40;1.00;;;;;;5050799;28;20432;-73
2023/10/06 00:50:42;;;;;;;8.63;7.50;;;14.40;1.00;;;;;;5052736;28;20453;-73
2023/10/06 00:53:13;;;;;;;11.27;7.53;;;14.40;1.00;;;;;;5052206;28;20401;-75
2023/10/06 00:55:40;;;;;;;8.10;6.47;;;14.40;1.00;;;;;;5050338;28;20447;-78
2023/10/06 00:58:10;;;;;;;7.47;6.73;;;14.50;1.00;;;;;;5052606;28;20401;-76
2023/10/06 01:00:38;;;;;;;7.67;6.87;;;14.50;1.00;;;;;;5052743;28;20405;-72
2023/10/06 01:03:14;;;;;;;12.90;7.57;;;14.50;1.00;;;;;;5050779;28;20432;-78
2023/10/06 01:05:45;;;;;;;11.37;6.80;;;14.50;1.00;;;;;;5050444;28;20444;-73
2023/10/06 01:08:15;;;;;;;8.70;6.77;;;14.50;1.00;;;;;;5052454;28;20444;-74
2023/10/06 01:10:40;;;;;;;8.93;6.30;;;14.50;1.00;;;;;;5051570;28;20452;-76
2023/10/06 01:13:13;;;;;;;10.77;7.03;;;14.60;1.00;;;;;;5052616;28;20449;-78
2023/10/06 01:15:49;;;;;;;16.13;8.00;;;14.50;1.00;;;;;;5051583;28;20198;-77
2023/10/06 01:18:27;;;;;;;12.60;8.60;;;14.60;1.00;;;;;;5051268;28;20500;-78
2023/10/06 01:20:53;;;;;;;12.30;8.50;;;14.60;1.00;;;;;;5051324;28;20441;-75
2023/10/06 01:23:22;;;;;;;13.00;7.97;;;14.50;1.00;;;;;;5052492;28;20392;-75
2023/10/06 01:25:54;;;;;;;13.40;9.17;;;14.60;1.00;;;;;;5051620;28;20422;-74
2023/10/06 01:28:23;;;;;;;19.60;9.13;;;14.60;1.00;;;;;;5052407;28;20906;-73
2023/10/06 01:30:52;;;;;;;11.73;8.17;;;14.50;1.00;;;;;;5051393;28;20467;-77
2023/10/06 01:33:18;;;;;;;12.10;7.90;;;14.60;1.00;;;;;;5050374;28;20434;-78
2023/10/06 01:35:45;;;;;;;9.00;7.60;;;14.60;1.00;;;;;;5051333;28;20426;-74
2023/10/06 01:38:22;;;;;;;13.60;8.70;;;14.60;1.00;;;;;;5052302;28;20639;-76
2023/10/06 01:40:52;;;;;;;14.93;8.37;;;14.60;1.00;;;;;;5052213;28;20821;-78
2023/10/06 01:43:22;;;;;;;10.80;7.60;;;14.60;1.00;;;;;;5052400;28;20428;-77
2023/10/06 01:45:49;;;;;;;10.70;6.90;;;14.60;1.00;;;;;;5050422;28;20436;-77
2023/10/06 01:48:22;;;;;;;13.03;8.27;;;14.60;1.00;;;;;;5050157;28;20432;-78
2023/10/06 01:50:49;;;;;;;9.77;7.00;;;14.60;1.00;;;;;;5051455;28;20961;-74
2023/10/06 01:53:21;;;;;;;13.10;8.40;;;14.60;1.00;;;;;;5034490;28;20492;-79
2023/10/06 01:55:54;;;;;;;10.07;8.97;;;14.60;1.00;;;;;;5050363;28;20429;-74
2023/10/06 01:58:20;;;;;;;10.97;8.20;;;14.60;1.00;;;;;;5032246;28;20502;-73
2023/10/06 02:00:48;;;;;;;11.90;9.00;;;14.60;1.00;;;;;;5035675;28;20410;-75
2023/10/06 02:03:18;;;;;;;9.17;7.43;;;14.60;1.00;;;;;;5053572;28;20433;-73
2023/10/06 02:05:44;;;;;;;14.37;8.20;;;14.50;1.00;;;;;;5053613;28;20463;-75
2023/10/06 02:08:11;;;;;;;10.87;7.73;;;14.50;1.00;;;;;;5055025;28;20375;-74
2023/10/06 02:10:37;;;;;;;19.53;8.03;;;14.50;1.00;;;;;;5054581;28;20467;-78
2023/10/06 02:13:07;;;;;;;11.30;8.10;;;14.40;1.00;;;;;;5055410;28;20405;-78
2023/10/06 02:15:33;;;;;;;12.57;8.47;;;14.50;1.00;;;;;;5054582;28;20434;-74
2023/10/06 02:17:59;;;;;;;11.40;8.00;;;14.50;1.00;;;;;;5054785;28;20444;-73
2023/10/06 02:22:55;;;;;;;11.83;8.73;;;14.50;1.00;;;;;;5055285;28;20444;-75
2023/10/06 02:25:22;;;;;;;17.37;7.80;;;14.50;1.00;;;;;;5054497;28;20613;-74
2023/10/06 02:27:50;;;;;;;11.83;7.43;;;14.50;1.00;;;;;;5053531;28;20479;-78
2023/10/06 02:30:24;;;;;;;11.07;7.40;;;14.50;1.00;;;;;;5055176;28;20384;-77
2023/10/06 02:32:51;;;;;;;12.47;8.20;;;14.50;1.00;;;;;;5054008;28;20510;-74
2023/10/06 02:35:17;;;;;;;15.33;7.67;;;14.40;1.00;;;;;;5054307;28;20460;-71
2023/10/06 02:37:47;;;;;;;13.60;6.40;;;14.50;1.00;;;;;;5055189;28;20383;-73
2023/10/06 02:40:12;;;;;;;13.73;8.33;;;14.50;1.00;;;;;;5055092;28;20397;-74
2023/10/06 02:42:51;;;;;;;12.63;8.20;;;14.40;1.00;;;;;;5054063;28;20507;-74
2023/10/06 02:45:20;;;;;;;19.90;8.77;;;14.40;1.00;;;;;;5051398;28;20185;-75
2023/10/06 02:47:49;;;;;;;15.87;8.53;;;14.40;1.00;;;;;;5053619;28;20429;-78
2023/10/06 02:50:21;;;;;;;14.47;9.97;;;14.40;1.00;;;;;;5054857;28;20493;-78
2023/10/06 02:52:47;;;;;;;10.50;7.70;;;14.40;1.00;;;;;;5054661;28;20393;-74
2023/10/06 02:55:18;;;;;;;12.37;8.60;;;14.40;1.00;;;;;;5053947;28;20392;-73
2023/10/06 02:57:50;;;;;;;20.17;8.40;;;14.30;1.00;;;;;;5054762;28;20422;-76
2023/10/06 03:02:55;;;;;;;14.50;8.10;;;14.40;1.00;;;;;;5054936;28;20421;-74
2023/10/06 03:05:38;;;;;;;10.50;8.87;;;14.40;1.00;;;;;;5052716;28;20817;-75
2023/10/06 03:08:08;;;;;;;13.83;7.90;;;14.30;1.00;;;;;;5054764;28;20394;-77
2023/10/06 03:10:42;;;;;;;8.43;7.13;;;14.30;1.00;;;;;;5053705;28;20511;-76
2023/10/06 03:13:09;;;;;;;14.17;8.63;;;14.30;1.00;;;;;;5054534;28;20849;-77
2023/10/06 03:15:45;;;;;;;15.43;9.20;;;14.30;1.00;;;;;;5052086;28;20451;-75
2023/10/06 03:18:15;;;;;;;16.60;8.23;;;14.30;1.00;;;;;;5052718;28;20458;-76
2023/10/06 03:20:48;;;;;;;13.30;7.50;;;14.30;1.00;;;;;;5054065;28;20846;-76
2023/10/06 03:25:53;;;;;;;15.93;8.00;;;14.30;1.00;;;;;;5053493;28;20512;-74
2023/10/06 03:28:19;;;;;;;11.90;8.07;;;14.20;1.00;;;;;;5054191;28;20413;-75
2023/10/06 03:30:49;;;;;;;13.63;8.40;;;14.20;1.00;;;;;;5049768;28;20457;-77
2023/10/06 03:33:17;;;;;;;12.63;8.23;;;14.20;1.00;;;;;;5053318;28;20472;-72
2023/10/06 03:35:46;;;;;;;18.10;8.40;;;14.10;1.00;;;;;;5051801;28;20461;-74
2023/10/06 03:38:36;;;;;;;14.97;8.17;;;14.10;1.00;;;;;;5054081;28;20376;-73
2023/10/06 03:46:11;;;;;;;13.07;8.47;;;14.10;1.00;;;;;;5046587;28;20578;-77
2023/10/06 03:48:38;;;;;;;14.30;8.63;;;14.10;1.00;;;;;;5052905;28;20504;-77
2023/10/06 03:51:05;;;;;;;21.50;9.93;;;14.10;1.00;;;;;;5053656;28;20484;-73
2023/10/06 03:53:31;;;;;;;13.23;8.73;;;14.10;1.00;;;;;;5053403;28;20394;-78
2023/10/06 03:55:57;;;;;;;14.93;8.50;;;14.10;1.00;;;;;;5052992;28;20522;-73
2023/10/06 03:58:31;;;;;;;11.33;7.30;;;14.10;1.00;;;;;;5052498;28;20205;-75
2023/10/06 04:00:58;;;;;;;13.83;8.53;;;14.10;1.00;;;;;;5053011;28;20922;-76
2023/10/06 04:03:23;;;;;;;14.10;8.70;;;14.10;1.00;;;;;;5052216;28;20509;-76
2023/10/06 04:05:50;;;;;;;13.90;8.50;;;14.10;1.00;;;;;;5052620;28;20551;-74
2023/10/06 04:08:20;;;;;;;17.20;8.50;;;14.10;1.00;;;;;;5053457;28;20163;-78
2023/10/06 04:10:53;;;;;;;12.13;8.50;;;14.10;1.00;;;;;;5052222;28;20434;-78
2023/10/06 04:13:20;;;;;;;16.37;8.17;;;14.10;1.00;;;;;;5053535;28;20383;-75
2023/10/06 04:15:50;;;;;;;17.43;9.07;;;14.10;1.00;;;;;;5052250;28;20798;-74
2023/10/06 04:18:17;;;;;;;16.00;8.13;;;14.10;1.00;;;;;;5052248;28;20850;-76
2023/10/06 04:20:44;;;;;;;11.40;8.23;;;14.10;1.00;;;;;;5045397;28;20438;-76
2023/10/06 04:23:13;;;;;;;11.13;8.10;;;14.10;1.00;;;;;;5047472;28;20404;-75
2023/10/06 04:25:40;;;;;;;13.17;7.93;;;14.10;1.00;;;;;;5052128;28;20427;-72
2023/10/06 04:28:11;;;;;;;12.83;8.00;;;14.10;1.00;;;;;;5052963;28;20968;-74
2023/10/06 04:30:38;;;;;;;13.47;7.03;;;14.00;1.00;;;;;;5053077;28;20441;-75
2023/10/06 04:33:08;;;;;;;9.40;7.63;;;14.00;1.00;;;;;;5051998;28;20401;-74
2023/10/06 04:35:34;;;;;;;19.07;8.50;;;14.00;1.00;;;;;;5051921;28;20906;-75
2023/10/06 04:38:01;;;;;;;10.80;7.70;;;14.00;1.00;;;;;;5052207;28;20432;-74
2023/10/06 04:40:28;;;;;;;13.90;8.43;;;14.00;1.00;;;;;;5035097;28;20820;-77
2023/10/06 04:42:56;;;;;;;14.40;7.13;;;13.90;1.00;;;;;;5052901;28;20401;-74
2023/10/06 04:45:22;;;;;;;16.07;8.80;;;14.00;1.00;;;;;;5051791;28;20778;-75
2023/10/06 04:47:48;;;;;;;18.20;8.50;;;14.00;1.00;;;;;;5051646;28;20513;-79
2023/10/06 04:50:16;;;;;;;15.33;7.77;;;14.00;1.00;;;;;;5051415;28;20813;-73
2023/10/06 04:52:48;;;;;;;11.97;7.80;;;14.00;1.00;;;;;;5052910;28;20713;-78
2023/10/06 04:55:19;;;;;;;11.93;7.30;;;14.00;1.00;;;;;;5051127;28;20399;-72
2023/10/06 04:57:44;;;;;;;10.43;7.93;;;14.00;1.00;;;;;;5033835;28;20406;-77
2023/10/06 05:00:18;;;;;;;18.03;7.73;;;14.00;1.00;;;;;;5052566;28;20401;-77
2023/10/06 05:02:44;;;;;;;13.80;7.17;;;14.00;1.00;;;;;;5051698;28;20186;-75
2023/10/06 05:05:14;;;;;;;13.97;8.53;;;14.00;1.00;;;;;;5051728;28;20414;-74
2023/10/06 05:07:39;;;;;;;13.73;7.07;;;14.00;1.00;;;;;;5052569;28;20893;-73
2023/10/06 05:10:10;;;;;;;16.03;8.30;;;14.00;1.00;;;;;;5051281;28;20386;-75
2023/10/06 05:12:37;;;;;;;11.17;8.40;;;13.90;1.00;;;;;;5052542;28;20209;-74
2023/10/06 05:15:09;;;;;;;12.80;8.33;;;14.00;1.00;;;;;;5050622;28;20400;-73
2023/10/06 05:17:36;;;;;;;11.20;7.80;;;14.00;1.00;;;;;;5051558;28;20401;-75
2023/10/06 05:20:04;;;;;;;11.40;7.87;;;14.00;1.00;;;;;;5050133;28;20520;-74
2023/10/06 05:22:30;;;;;;;10.13;7.40;;;14.00;1.00;;;;;;5052483;28;20427;-74
2023/10/06 05:24:56;;;;;;;26.77;8.63;;;14.00;1.00;;;;;;5051362;28;20452;-76
2023/10/06 05:27:22;;;;;;;18.00;9.73;;;14.00;1.00;;;;;;5050430;28;20423;-73
2023/10/06 05:29:50;;;;;;;10.43;8.67;;;14.00;1.00;;;;;;5052440;28;20175;-77
2023/10/06 05:32:17;;;;;;;13.03;8.63;;;14.00;1.00;;;;;;5052213;28;20249;-72
2023/10/06 05:34:43;;;;;;;20.20;9.97;;;14.00;1.00;;;;;;5051378;28;20925;-78
2023/10/06 05:37:08;;;;;;;17.00;9.97;;;14.00;1.00;;;;;;5056318;28;20463;-73
2023/10/06 05:39:35;;;;;;;12.70;9.00;;;14.00;1.00;;;;;;5056190;28;20397;-76
2023/10/06 05:42:04;;;;;;;16.03;9.23;;;14.00;1.00;;;;;;5056220;28;20877;-76
2023/10/06 05:44:30;;;;;;;13.10;8.30;;;14.00;1.00;;;;;;5053560;28;20443;-75
2023/10/06 05:46:57;;;;;;;14.33;9.20;;;14.00;1.00;;;;;;5056195;28;20436;-75
2023/10/06 05:49:22;;;;;;;22.30;9.70;;;14.00;1.00;;;;;;5037562;28;20524;-78
2023/10/06 05:51:49;;;;;;;14.80;8.70;;;14.00;1.00;;;;;;5054086;28;20553;-72
2023/10/06 05:54:26;;;;;;;15.07;10.30;;;13.90;1.00;;;;;;5050533;28;20213;-76
2023/10/06 05:56:53;;;;;;;17.87;10.80;;;13.80;1.00;;;;;;5055737;28;20390;-75
2023/10/06 05:59:22;;;;;;;18.60;11.37;;;13.80;1.00;;;;;;5056028;28;20468;-74
2023/10/06 06:01:56;;;;;;;17.40;10.23;;;13.70;1.00;;;;;;5054911;28;20443;-72
2023/10/06 06:04:27;;;;;;;19.67;12.47;;;13.70;1.00;;;;;;5053025;28;20403;-74
2023/10/06 06:06:56;;;;;;;17.53;9.50;;;13.70;1.00;;;;;;5055587;28;20780;-71
2023/10/06 06:09:27;;;;;;;23.17;11.03;;;13.70;1.00;;;;;;5055536;28;20380;-76
2023/10/06 06:11:52;;;;;;;18.23;10.97;;;13.70;1.00;;;;;;5054554;28;20515;-73
2023/10/06 06:14:21;;;;;;;16.13;11.27;;;13.60;1.00;;;;;;5036074;28;20987;-73
2023/10/06 06:16:50;;;;;;;16.60;9.60;;;13.60;1.00;;;;;;5055319;28;20219;-72
2023/10/06 06:19:16;;;;;;;18.13;11.20;;;13.60;1.00;;;;;;5054750;28;20399;-73
2023/10/06 06:21:42;;;;;;;18.60;10.30;;;13.60;1.00;;;;;;5055570;28;20943;-73
2023/10/06 06:24:08;;;;;;;13.17;10.00;;;13.60;1.00;;;;;;5054495;28;20509;-73
2023/10/06 06:26:37;;;;;;;14.10;10.40;;;13.60;1.00;;;;;;5053618;28;20496;-76
2023/10/06 06:29:04;;;;;;;22.43;11.17;;;13.60;1.00;;;;;;5054795;28;20433;-78
2023/10/06 06:31:33;;;;;;;14.80;10.47;;;13.60;1.00;;;;;;5055116;28;20412;-77
2023/10/06 06:34:05;;;;;;;17.90;11.53;;;13.60;1.00;;;;;;5052475;28;20440;-73
2023/10/06 06:36:32;;;;;;;14.60;11.27;;;13.60;8.90;;;;;;5035346;28;20432;-73
2023/10/06 06:38:58;;;;;;;16.10;9.67;;;13.60;18.50;;;;;;5035207;28;20453;-74
2023/10/06 06:41:27;;;;;;;19.00;12.50;;;13.60;23.60;;;;;;5035171;28;20437;-78
2023/10/06 06:43:59;;;;;;;14.03;10.00;;;13.60;35.70;;;;;;5048497;28;20415;-75
2023/10/06 06:46:26;;;;;;;22.13;10.70;;;13.60;35.70;;;;;;5053775;28;20396;-73
2023/10/06 06:48:53;;;;;;;18.07;11.07;;;13.60;43.70;;;;;;5054983;28;20379;-74
2023/10/06 06:51:20;;;;;;;17.40;11.97;;;13.60;60.20;;;;;;5053699;28;20463;-74
2023/10/06 06:53:47;;;;;;;15.97;10.90;;;13.70;83.30;;;;;;5054132;28;20388;-78
2023/10/06 06:56:13;;;;;;;14.13;10.37;;;13.70;86.00;;;;;;5054838;28;20439;-77
2023/10/06 06:58:39;;;;;;;18.40;10.60;;;13.70;92.90;;;;;;5053987;28;20408;-78
2023/10/06 07:01:07;;;;;;;21.73;10.67;;;13.70;95.00;;;;;;5053678;28;20229;-75
2023/10/06 07:03:33;;;;;;;20.70;11.17;;;13.70;95.10;;;;;;5053681;28;20914;-77
2023/10/06 07:05:59;;;;;;;15.20;10.00;;;13.60;93.80;;;;;;5052916;28;20427;-77
2023/10/06 07:08:25;;;;;;;9.83;8.00;;;13.60;95.90;;;;;;5053610;28;21055;-74
2023/10/06 07:10:54;;;;;;;12.60;7.83;;;13.60;98.50;;;;;;5054672;28;20473;-75
2023/10/06 07:13:23;;;;;;;11.70;9.40;;;13.60;99.90;;;;;;5054598;28;20171;-71
2023/10/06 07:15:49;;;;;;;13.00;9.27;;;13.60;99.90;;;;;;5052738;28;20449;-78
2023/10/06 07:18:15;;;;;;;16.03;7.10;;;13.60;99.70;;;;;;5053377;28;20785;-78
2023/10/06 07:20:41;;;;;;;12.77;8.00;;;13.50;97.10;;;;;;5052472;28;20429;-75
2023/10/06 07:23:07;;;;;;;11.27;8.60;;;13.50;97.70;;;;;;5054551;28;20589;-74
2023/10/06 07:25:33;;;;;;;11.27;8.20;;;13.50;98.10;;;;;;5053352;28;20503;-78
2023/10/06 07:28:00;;;;;;;11.97;8.23;;;13.50;98.50;;;;;;5053372;28;20440;-77
2023/10/06 07:30:29;;;;;;;13.83;8.83;;;13.60;99.90;;;;;;5054256;28;20198;-72
2023/10/06 07:32:55;;;;;;;16.90;9.40;;;13.50;99.70;;;;;;5054271;28;20413;-74
2023/10/06 07:35:27;;;;;;;14.87;10.00;;;13.60;99.90;;;;;;5052189;28;20431;-78
2023/10/06 07:37:53;;;;;;;19.13;9.70;;;13.60;99.90;;;;;;5034261;28;20835;-75
2023/10/06 07:40:21;;;;;;;16.10;10.40;;;13.60;99.90;;;;;;5033647;28;20460;-79
2023/10/06 07:42:49;;;;;;;12.77;9.63;;;13.60;99.90;;;;;;5027003;28;20438;-79
2023/10/06 07:45:16;;;;;;;11.50;9.50;;;13.60;99.90;;;;;;5051955;28;20428;-72
2023/10/06 07:47:42;;;;;;;12.73;8.93;;;13.60;99.90;;;;;;5053946;28;20409;-75
2023/10/06 07:50:09;;;;;;;16.60;10.80;;;13.60;99.90;;;;;;5053186;28;20569;-76
2023/10/06 07:52:38;;;;;;;16.80;10.77;;;13.60;99.90;;;;;;5053483;28;20221;-75
2023/10/06 07:55:09;;;;;;;13.70;11.53;;;13.60;99.90;;;;;;5053070;28;20429;-79
2023/10/06 07:57:37;;;;;;;14.90;8.73;;;13.60;99.90;;;;;;5052461;28;20788;-75
2023/10/06 08:00:06;;;;;;;11.93;10.73;;;13.60;99.90;;;;;;5052749;28;20805;-74
2023/10/06 08:02:33;;;;;;;12.37;9.80;;;13.60;99.90;;;;;;5053748;28;20391;-74
2023/10/06 08:05:01;;;;;;;17.90;11.30;;;13.60;99.90;;;;;;5052608;28;20809;-79
2023/10/06 08:07:27;;;;;;;14.27;10.10;;;13.70;99.90;;;;;;5052026;28;20471;-74
2023/10/06 08:10:00;;;;;;;15.90;11.10;;;13.70;99.90;;;;;;5051816;28;20468;-74
2023/10/06 08:12:28;;;;;;;13.90;11.20;;;13.70;99.90;;;;;;5035698;28;20818;-77
2023/10/06 08:14:54;;;;;;;16.90;11.00;;;13.70;99.90;;;;;;5034067;28;21124;-79
2023/10/06 08:17:20;;;;;;;16.50;11.00;;;13.70;99.90;;;;;;5053539;28;20397;-77
2023/10/06 08:19:46;;;;;;;14.23;9.90;;;13.70;99.90;;;;;;5052010;28;20194;-76
2023/10/06 08:22:15;;;;;;;16.13;11.20;;;13.70;99.90;;;;;;5052249;28;20397;-77
2023/10/06 08:24:43;;;;;;;19.33;12.20;;;13.70;99.90;;;;;;5032630;28;20873;-72
2023/10/06 08:27:08;;;;;;;15.70;12.30;;;13.70;99.90;;;;;;5015610;28;20400;-76
2023/10/06 08:29:34;;;;;;;17.27;10.80;;;13.70;99.90;;;;;;5035311;28;20428;-78
2023/10/06 08:32:02;;;;;;;15.40;12.33;;;13.70;99.90;;;;;;5052393;28;20228;-78
2023/10/06 08:34:30;;;;;;;17.13;12.70;;;13.70;99.90;;;;;;5033685;28;20171;-78
2023/10/06 08:36:56;;;;;;;15.13;11.80;;;13.80;99.90;;;;;;5049002;28;20503;-73
2023/10/06 08:39:21;;;;;;;14.47;11.90;;;13.80;99.90;;;;;;5031778;28;21757;-78
2023/10/06 08:41:52;;;;;;;19.67;12.70;;;13.80;99.90;;;;;;5050632;28;20189;-75
2023/10/06 08:44:22;;;;;;;17.73;12.90;;;13.80;99.90;;;;;;5052337;28;20639;-77
2023/10/06 08:46:50;;;;;;;16.10;11.20;;;13.90;99.90;;;;;;5049781;28;20447;-77
2023/10/06 08:49:19;;;;;;;21.63;12.30;;;13.90;99.90;;;;;;5052830;28;20398;-77
2023/10/06 08:51:50;;;;;;;21.80;12.40;;;13.90;99.90;;;;;;5050533;28;21152;-78
2023/10/06 08:54:17;;;;;;;12.73;10.70;;;13.90;99.90;;;;;;5051982;28;20424;-78
2023/10/06 08:56:43;;;;;;;17.33;11.57;;;13.90;99.90;;;;;;5052765;28;20425;-75
2023/10/06 08:59:11;;;;;;;17.90;12.70;;;13.90;99.90;;;;;;5052847;28;20765;-75
2023/10/06 09:01:37;;;;;;;13.83;11.83;;;13.90;99.90;;;;;;5049708;28;20185;-75
2023/10/06 09:04:03;;;;;;;14.17;12.67;;;13.90;99.90;;;;;;5050729;28;20439;-76
2023/10/06 09:06:29;;;;;;;13.80;12.30;;;13.90;99.90;;;;;;5034094;28;20457;-74
2023/10/06 09:08:55;;;;;;;15.33;13.47;;;13.90;99.90;;;;;;5052005;28;20405;-75
2023/10/06 09:11:41;;;;;;;22.90;13.07;;;13.90;99.90;;;;;;5051712;28;20198;-73
2023/10/06 09:14:07;;;;;;;13.83;11.90;;;14.00;99.90;;;;;;5051252;28;20191;-76
2023/10/06 09:16:49;;;;;;;15.20;13.00;;;14.00;99.90;;;;;;5051349;28;20453;-75
2023/10/06 09:19:15;;;;;;;14.63;12.00;;;14.00;99.90;;;;;;5052623;28;20909;-73
2023/10/06 09:22:00;;;;;;;21.27;14.57;;;14.00;99.90;;;;;;5051314;28;20425;-76
2023/10/06 09:24:27;;;;;;;16.80;13.30;;;14.00;99.90;;;;;;5050496;28;20209;-75
2023/10/06 09:26:55;;;;;;;16.33;12.90;;;14.00;99.90;;;;;;5052601;28;20402;-76
2023/10/06 09:29:33;;;;;;;15.67;14.00;;;14.00;99.90;;;;;;5050495;28;20793;-74
2023/10/06 09:32:00;;;;;;;23.93;14.07;;;14.00;99.90;;;;;;5050275;28;20440;-77
2023/10/06 09:34:27;;;;;;;18.20;14.37;;;14.10;99.90;;;;;;5051414;28;20933;-78
2023/10/06 09:36:53;;;;;;;19.90;13.37;;;14.10;99.90;;;;;;5050492;28;20794;-74
2023/10/06 09:39:26;;;;;;;18.93;13.70;;;14.10;99.90;;;;;;5052612;28;20397;-77
2023/10/06 09:41:54;;;;;;;15.57;12.67;;;14.10;99.90;;;;;;5052376;28;20500;-76
2023/10/06 09:44:22;;;;;;;17.37;13.07;;;14.10;99.90;;;;;;5050268;28;20933;-74
2023/10/06 09:46:54;;;;;;;16.27;12.73;;;14.20;99.90;;;;;;5051621;28;20468;-76
2023/10/06 09:49:21;;;;;;;15.60;12.70;;;14.20;99.90;;;;;;5051974;28;20409;-75
2023/10/06 09:51:50;;;;;;;13.53;11.30;;;14.20;99.90;;;;;;5050480;28;20461;-73
2023/10/06 09:54:16;;;;;;;18.60;12.80;;;14.30;99.90;;;;;;5051402;28;20793;-75
2023/10/06 09:56:44;;;;;;;16.03;10.80;;;14.30;99.90;;;;;;5051253;28;20465;-73
2023/10/06 09:59:13;;;;;;;18.20;11.70;;;14.30;99.90;;;;;;5052401;28;20368;-77
2023/10/06 10:01:42;;;;;;;13.33;10.67;;;14.30;99.90;;;;;;5052137;28;20897;-75
2023/10/06 10:04:11;;;;;;;11.97;10.77;;;14.30;99.90;;;;;;5050561;28;20413;-73
2023/10/06 10:06:44;;;;;;;13.07;11.77;;;14.30;99.90;;;;;;5050811;28;20455;-77
2023/10/06 10:09:16;;;;;;;15.70;11.67;;;14.30;99.90;;;;;;5034406;28;20413;-77
2023/10/06 10:11:54;;;;;;;13.53;11.43;;;14.40;99.90;;;;;;5052056;28;20536;-78
2023/10/06 10:14:49;;;;;;;13.47;11.80;;;14.40;99.90;;;;;;5033117;28;20408;-79
2023/10/06 10:17:29;;;;;;;12.00;10.90;;;14.40;99.90;;;;;;5052289;28;20460;-77
2023/10/06 10:19:55;;;;;;;12.90;11.50;;;14.40;99.90;;;;;;5052940;28;20414;-73
2023/10/06 10:22:21;;;;;;;13.50;10.90;;;14.40;99.90;;;;;;5054363;28;20448;-76
2023/10/06 10:24:47;;;;;;;14.20;10.47;;;14.30;99.90;;;;;;5035840;28;20768;-76
2023/10/06 10:27:16;;;;;;;12.03;10.93;;;14.40;99.90;;;;;;5055670;28;20671;-76
2023/10/06 10:29:42;;;;;;;12.20;10.60;;;14.40;99.90;;;;;;5055465;28;20392;-78
2023/10/06 10:32:17;;;;;;;12.63;11.40;;;14.50;99.90;;;;;;5054201;28;20460;-75
2023/10/06 10:35:08;;;;;;;12.60;10.27;;;14.40;99.90;;;;;;5051607;28;20805;-78
2023/10/06 10:37:55;;;;;;;11.80;10.60;;;14.50;99.90;;;;;;5054196;28;20433;-77
2023/10/06 10:40:28;;;;;;;11.17;9.97;;;14.50;99.90;;;;;;5055221;28;20406;-78
2023/10/06 10:43:04;;;;;;;13.90;9.70;;;14.50;99.90;;;;;;5037102;28;20396;-77
2023/10/06 10:45:35;;;;;;;11.10;10.10;;;14.50;99.90;;;;;;5053674;28;20410;-78
2023/10/06 10:48:13;;;;;;;12.57;11.00;;;14.50;99.90;;;;;;5054166;28;20923;-75
2023/10/06 10:51:00;;;;;;;13.57;10.10;;;14.50;99.90;;;;;;5054282;28;20528;-79
2023/10/06 10:53:37;;;;;;;10.73;9.63;;;14.40;99.90;;;;;;5034996;28;20406;-74
2023/10/06 10:56:03;;;;;;;16.73;11.27;;;14.40;99.90;;;;;;5034442;28;20439;-76
2023/10/06 10:58:44;;;;;;;13.33;9.73;;;14.40;99.90;;;;;;5035197;28;20778;-78
2023/10/06 11:01:31;;;;;;;12.27;10.97;;;14.40;99.90;;;;;;5043911;28;20499;-78
2023/10/06 11:04:18;;;;;;;14.50;12.23;;;14.40;99.90;;;;;;5053586;28;20397;-74
2023/10/06 11:06:48;;;;;;;14.07;11.10;;;14.40;99.90;;;;;;5053641;28;20427;-75
2023/10/06 11:09:26;;;;;;;9.80;8.80;;;14.40;99.90;;;;;;5054703;28;20402;-76
2023/10/06 11:12:00;;;;;;;12.63;10.47;;;14.30;99.90;;;;;;5054728;28;20452;-75
2023/10/06 11:14:27;;;;;;;11.90;10.30;;;14.40;99.90;;;;;;5052503;28;20429;-74
2023/10/06 11:17:02;;;;;;;11.63;9.57;;;14.40;99.90;;;;;;5053364;28;20429;-78
2023/10/06 11:19:33;;;;;;;10.90;9.80;;;14.40;99.90;;;;;;5053570;28;20412;-78
2023/10/06 11:22:27;;;;;;;12.77;9.93;;;14.40;99.90;;;;;;5053221;28;20491;-78
2023/10/06 11:24:57;;;;;;;10.30;9.30;;;14.40;99.90;;;;;;5053574;28;20480;-75
2023/10/06 11:27:23;;;;;;;11.77;9.90;;;14.40;99.90;;;;;;5053916;28;20425;-74
2023/10/06 11:29:53;;;;;;;10.67;9.67;;;14.50;99.90;;;;;;5035045;28;20929;-74
2023/10/06 11:32:19;;;;;;;12.20;9.60;;;14.50;99.90;;;;;;5051902;28;20495;-78
2023/10/06 11:34:45;;;;;;;10.20;9.20;;;14.50;99.90;;;;;;5050787;28;20437;-77
2023/10/06 11:37:22;;;;;;;11.53;9.13;;;14.60;99.90;;;;;;5050498;28;20430;-78
2023/10/06 11:39:50;;;;;;;11.90;10.70;;;14.50;99.90;;;;;;5049650;28;20524;-77
2023/10/06 11:42:25;;;;;;;10.50;9.50;;;14.60;99.90;;;;;;5052468;28;20453;-75
2023/10/06 11:44:56;;;;;;;11.83;10.40;;;14.60;99.90;;;;;;5035339;28;20801;-74
2023/10/06 11:47:28;;;;;;;11.70;10.50;;;14.70;99.90;;;;;;5052682;28;20440;-75
2023/10/06 11:49:58;;;;;;;12.23;11.13;;;14.70;99.90;;;;;;5052266;28;20472;-74
2023/10/06 11:52:24;;;;;;;15.00;11.53;;;14.70;99.90;;;;;;5052310;28;20877;-77
2023/10/06 11:54:51;;;;;;;14.13;11.00;;;14.80;99.90;;;;;;5050181;28;21014;-73
2023/10/06 11:57:19;;;;;;;15.30;11.90;;;14.80;99.90;;;;;;5051330;28;20433;-77
2023/10/06 11:59:52;;;;;;;13.33;11.93;;;14.80;99.90;;;;;;5050644;28;20930;-74
2023/10/06 12:02:19;;;;;;;12.80;11.50;;;14.80;99.90;;;;;;5052419;28;20457;-77
2023/10/06 12:04:44;;;;;;;15.70;11.30;;;14.80;99.90;;;;;;5050643;28;20484;-74
2023/10/06 12:07:24;;;;;;;14.17;12.83;;;14.80;99.90;;;;;;5050124;28;20441;-76
2023/10/06 12:09:50;;;;;;;15.40;12.53;;;14.90;99.90;;;;;;5051063;28;20202;-79
2023/10/06 12:12:17;;;;;;;14.77;12.70;;;14.80;99.90;;;;;;5050168;28;20468;-76
2023/10/06 12:14:44;;;;;;;14.73;11.73;;;14.90;99.90;;;;;;5048289;28;20825;-77
2023/10/06 12:17:15;;;;;;;14.03;12.57;;;14.90;99.90;;;;;;5052348;28;20429;-74
2023/10/06 12:19:44;;;;;;;12.50;11.30;;;14.90;99.90;;;;;;5032724;28;20430;-78
2023/10/06 12:22:10;;;;;;;14.30;12.80;;;14.90;99.90;;;;;;5049267;28;20661;-75
2023/10/06 12:24:35;;;;;;;14.40;12.67;;;14.90;99.90;;;;;;5051154;28;21026;-76
2023/10/06 12:27:02;;;;;;;14.00;12.57;;;15.00;99.90;;;;;;5051933;28;20191;-76
2023/10/06 12:29:31;;;;;;;14.77;13.17;;;14.90;99.90;;;;;;5053251;28;20171;-76
2023/10/06 12:31:57;;;;;;;18.93;13.53;;;14.90;99.90;;;;;;5049073;28;20449;-75
2023/10/06 12:34:23;;;;;;;14.80;13.10;;;15.00;99.90;;;;;;5047727;28;20434;-78
2023/10/06 12:36:51;;;;;;;17.80;13.43;;;15.00;99.90;;;;;;5046112;28;20457;-76
2023/10/06 12:39:30;;;;;;;16.10;13.60;;;15.00;99.90;;;;;;5052995;28;20408;-73
2023/10/06 12:41:59;;;;;;;15.03;13.60;;;15.00;99.90;;;;;;5051147;28;20445;-76
2023/10/06 12:44:29;;;;;;;17.83;13.53;;;15.10;99.90;;;;;;5051192;28;20480;-77
2023/10/06 12:46:56;;;;;;;21.47;13.90;;;15.10;99.90;;;;;;5051156;28;20527;-74
2023/10/06 12:49:23;;;;;;;18.87;13.17;;;15.10;1.00;;;;;;5049048;28;20427;-78
2023/10/06 12:51:49;;;;;;;14.53;12.97;;;15.20;1.00;;;;;;5054049;28;20464;-73
2023/10/06 12:54:16;;;;;;;16.93;13.27;;;15.20;1.00;;;;;;5051952;28;20412;-78
2023/10/06 12:56:44;;;;;;;20.23;11.07;;;15.20;1.00;;;;;;5051374;28;20933;-76
2023/10/06 12:59:13;;;;;;;16.87;12.83;;;15.30;1.00;;;;;;5054061;28;20440;-77
2023/10/06 13:01:38;;;;;;;13.37;12.07;;;15.30;1.00;;;;;;5051465;28;20499;-74
2023/10/06 13:04:05;;;;;;;13.63;12.20;;;15.40;1.00;;;;;;5050228;28;20822;-76